Lyons, OR (97358)

11:57 AM PST on February 19, 2017 (GMT -0800)
Town of Lyons | | Change Station
Active Advisory: Gale Warning

Elev 669 ft 44.78 °N, 122.61 °W | Updated 49 seconds ago

Overcast
Overcast
51.1 °F
Feels Like 51.1 °F
N
3.7
Wind Variable Wind from ESE

Today
High -- | Low -- °F
--% Chance of Precip.
Yesterday
High -- | Low -- °F
Precip. -- in
Pressure 29.53 in
Visibility 10.0 miles
Clouds Few 2600 ft
Scattered Clouds 3500 ft
Mostly Cloudy 4200 ft
Dew Point 42 °F
Humidity 70%
Rainfall 0.40 in
Snow Depth Not available.
7:04 AM 5:45 PM
Last Quarter, 41% visible
METAR KSLE 191856Z 19018G26KT 10SM -RA FEW026 SCT035 BKN042 09/04 A2953 RMK AO2 PK WND 19026/1800 RAB34 SLP000 P0000 T00940039
Pressure 29.53 in
Visibility 10.0 miles
Clouds Few 2600 ft
Scattered Clouds 3500 ft
Mostly Cloudy 4200 ft
Dew Point 42 °F
Humidity 70%
Rainfall 0.40 in
Snow Depth Not available.
7:04 AM 5:45 PM
Last Quarter, 41% visible
METAR KSLE 191856Z 19018G26KT 10SM -RA FEW026 SCT035 BKN042 09/04 A2953 RMK AO2 PK WND 19026/1800 RAB34 SLP000 P0000 T00940039

Get Your Daily Forecast Email!

Thanks for signing up!

Be on the lookout for a verification email in your inbox.

You'll start receiving the daily forecast at 8 AM.

×

10-Day Weather Forecast

Almanac

Astronomy

Feb. 19, 2017 Rise Set
Actual Time
Civil Twilight
Nautical Twilight
Astronomical Twilight
Moon
Length of Visible Light
Length of Day
Tomorrow will be .
, % of the Moon is Illuminated

Today's Extremes

State Highs State Lows

Community

WunderPhotos

Upload Photos

1,962,540 photos uploaded!

WunderBlog® & News

Nearby

Air Quality

  Air Quality AQ Index Pollutant
Not available.

Snow Depth

Station Depth Elevation

Earthquake Activity

City Distance Mag. Time & Date
Minimum magnitude displayed is 2.5.

Coastal Water Temperatures

Place Temperature

Stations

Nearby Weather Stations

Station Location Temp. Windchill Dew Point Humidity Wind Precip. Elev Updated Type
                   

Watches & Warnings

Gale Warning
Issued: 6:06 AM PST Feb. 19, 2017 – National Weather Service

... Gale Warning remains in effect until noon PST today...

* winds... southerly wind 25 to 30 kt with gusts to 35 kt through
this morning. Wind becoming southwest 20 to 25 kt in the
afternoon.

* Seas... rising to 10 to 12 ft today then peaking around 12 to
14 ft tonight.

Precautionary/preparedness actions...

A Gale Warning means winds of 34 to 47 knots are imminent or
occurring. Operating a vessel in gale conditions requires
experience and properly equipped vessels. It is highly
recommended that mariners without the proper experience seek safe
Harbor prior to the onset of gale conditions.